Porteirinha, Brazil
Current Conditions -  °F | °C
As of 8:00 PM on Friday 28 Nov 2014 (Local Time) from SBMK Reporting Station
Clear Clear  
Wind Chill: 79°   Ceiling: Unl
Heat Index: 81°   Visibility: 6mi
Dew Point: 64°   Wind: 6mph
Humidity: 61%   Direction: 170°S
Pressure: 29.97"   Gusts: NA
Location:  15.74°S, 43.03°W
Report Text: SBMK 282200Z 17005KT CAVOK 26/18 Q1015
Loading
Personal Weather Stations






























Interactive Weather Map New forecast layout! Learn more

10-Day Weather Forecast

Advertisements
Track Severe Weather on mobile